sensor_id;sensor_type;location;lat;lon;timestamp;temperature;humidity
10883;DHT22;5494;51.796;10.952;2023-11-21T00:00:48;8.10;99.90
10883;DHT22;5494;51.796;10.952;2023-11-21T00:03:17;8.10;99.90
10883;DHT22;5494;51.796;10.952;2023-11-21T00:05:46;8.10;99.90
10883;DHT22;5494;51.796;10.952;2023-11-21T00:08:14;8.00;99.90
10883;DHT22;5494;51.796;10.952;2023-11-21T00:10:41;8.00;99.90
10883;DHT22;5494;51.796;10.952;2023-11-21T00:13:11;8.00;99.90
10883;DHT22;5494;51.796;10.952;2023-11-21T00:15:40;8.00;99.90
10883;DHT22;5494;51.796;10.952;2023-11-21T00:18:08;8.10;99.90
10883;DHT22;5494;51.796;10.952;2023-11-21T00:20:37;8.10;99.90
10883;DHT22;5494;51.796;10.952;2023-11-21T00:23:05;8.10;99.90
10883;DHT22;5494;51.796;10.952;2023-11-21T00:25:33;8.10;99.90
10883;DHT22;5494;51.796;10.952;2023-11-21T00:28:02;8.10;99.90
10883;DHT22;5494;51.796;10.952;2023-11-21T00:30:30;8.10;99.90
10883;DHT22;5494;51.796;10.952;2023-11-21T00:33:00;8.10;99.90
10883;DHT22;5494;51.796;10.952;2023-11-21T00:35:28;8.10;99.90
10883;DHT22;5494;51.796;10.952;2023-11-21T00:37:56;8.10;99.90
10883;DHT22;5494;51.796;10.952;2023-11-21T00:40:25;8.00;99.90
10883;DHT22;5494;51.796;10.952;2023-11-21T00:42:54;8.00;99.90
10883;DHT22;5494;51.796;10.952;2023-11-21T00:45:24;8.00;99.90
10883;DHT22;5494;51.796;10.952;2023-11-21T00:47:52;8.00;99.90
10883;DHT22;5494;51.796;10.952;2023-11-21T00:50:22;8.00;99.90
10883;DHT22;5494;51.796;10.952;2023-11-21T00:52:51;8.00;99.90
10883;DHT22;5494;51.796;10.952;2023-11-21T00:55:19;8.00;99.90
10883;DHT22;5494;51.796;10.952;2023-11-21T00:57:48;8.00;99.90
10883;DHT22;5494;51.796;10.952;2023-11-21T01:00:17;8.00;99.90
10883;DHT22;5494;51.796;10.952;2023-11-21T01:02:45;8.00;99.90
10883;DHT22;5494;51.796;10.952;2023-11-21T01:05:14;8.10;99.90
10883;DHT22;5494;51.796;10.952;2023-11-21T01:07:43;8.10;99.90
10883;DHT22;5494;51.796;10.952;2023-11-21T01:10:11;8.10;99.90
10883;DHT22;5494;51.796;10.952;2023-11-21T01:12:40;8.20;99.90
10883;DHT22;5494;51.796;10.952;2023-11-21T01:15:08;8.30;99.90
10883;DHT22;5494;51.796;10.952;2023-11-21T01:17:38;8.30;99.90
10883;DHT22;5494;51.796;10.952;2023-11-21T01:20:08;8.40;99.90
10883;DHT22;5494;51.796;10.952;2023-11-21T01:22:42;8.40;99.90
10883;DHT22;5494;51.796;10.952;2023-11-21T01:25:11;8.40;99.90
10883;DHT22;5494;51.796;10.952;2023-11-21T01:27:42;8.50;99.90
10883;DHT22;5494;51.796;10.952;2023-11-21T01:30:11;8.60;99.90
10883;DHT22;5494;51.796;10.952;2023-11-21T01:32:39;8.60;99.90
10883;DHT22;5494;51.796;10.952;2023-11-21T01:35:08;8.60;99.90
10883;DHT22;5494;51.796;10.952;2023-11-21T01:37:38;8.70;99.90
10883;DHT22;5494;51.796;10.952;2023-11-21T01:40:09;8.70;99.90
10883;DHT22;5494;51.796;10.952;2023-11-21T01:42:40;8.80;99.90
10883;DHT22;5494;51.796;10.952;2023-11-21T01:45:10;8.80;99.90
10883;DHT22;5494;51.796;10.952;2023-11-21T01:47:40;8.80;99.90
10883;DHT22;5494;51.796;10.952;2023-11-21T01:50:14;8.80;99.90
10883;DHT22;5494;51.796;10.952;2023-11-21T01:52:45;8.80;99.90
10883;DHT22;5494;51.796;10.952;2023-11-21T01:55:17;8.80;99.90
10883;DHT22;5494;51.796;10.952;2023-11-21T01:57:55;8.80;99.90
10883;DHT22;5494;51.796;10.952;2023-11-21T02:00:24;8.80;99.90
10883;DHT22;5494;51.796;10.952;2023-11-21T02:02:56;8.80;99.90
10883;DHT22;5494;51.796;10.952;2023-11-21T02:05:24;8.80;99.90
10883;DHT22;5494;51.796;10.952;2023-11-21T02:07:52;8.80;99.90
10883;DHT22;5494;51.796;10.952;2023-11-21T02:10:22;8.80;99.90
10883;DHT22;5494;51.796;10.952;2023-11-21T02:12:51;8.80;99.90
10883;DHT22;5494;51.796;10.952;2023-11-21T02:15:20;8.90;99.90
10883;DHT22;5494;51.796;10.952;2023-11-21T02:17:50;8.90;99.90
10883;DHT22;5494;51.796;10.952;2023-11-21T02:20:21;8.80;99.90
10883;DHT22;5494;51.796;10.952;2023-11-21T02:22:54;8.90;99.90
10883;DHT22;5494;51.796;10.952;2023-11-21T02:25:27;8.90;99.90
10883;DHT22;5494;51.796;10.952;2023-11-21T02:27:59;8.90;99.90
10883;DHT22;5494;51.796;10.952;2023-11-21T02:30:29;8.90;99.90
10883;DHT22;5494;51.796;10.952;2023-11-21T02:32:59;8.90;99.90
10883;DHT22;5494;51.796;10.952;2023-11-21T02:35:28;8.90;99.90
10883;DHT22;5494;51.796;10.952;2023-11-21T02:38:00;8.90;99.90
10883;DHT22;5494;51.796;10.952;2023-11-21T02:40:28;8.90;99.90
10883;DHT22;5494;51.796;10.952;2023-11-21T02:42:57;9.00;99.90
10883;DHT22;5494;51.796;10.952;2023-11-21T02:45:26;8.90;99.90
10883;DHT22;5494;51.796;10.952;2023-11-21T02:47:54;9.00;99.90
10883;DHT22;5494;51.796;10.952;2023-11-21T02:50:24;9.00;99.90
10883;DHT22;5494;51.796;10.952;2023-11-21T02:52:52;9.00;99.90
10883;DHT22;5494;51.796;10.952;2023-11-21T02:55:22;9.00;99.90
10883;DHT22;5494;51.796;10.952;2023-11-21T02:57:53;9.00;99.90
10883;DHT22;5494;51.796;10.952;2023-11-21T03:00:23;9.10;99.90
10883;DHT22;5494;51.796;10.952;2023-11-21T03:02:52;9.20;99.90
10883;DHT22;5494;51.796;10.952;2023-11-21T03:05:21;9.20;99.90
10883;DHT22;5494;51.796;10.952;2023-11-21T03:07:49;9.20;99.90
10883;DHT22;5494;51.796;10.952;2023-11-21T03:10:18;9.20;99.90
10883;DHT22;5494;51.796;10.952;2023-11-21T03:12:48;9.20;99.90
10883;DHT22;5494;51.796;10.952;2023-11-21T03:15:16;9.10;99.90
10883;DHT22;5494;51.796;10.952;2023-11-21T03:17:45;9.10;99.90
10883;DHT22;5494;51.796;10.952;2023-11-21T03:20:16;9.10;99.90
10883;DHT22;5494;51.796;10.952;2023-11-21T03:22:44;9.00;99.90
10883;DHT22;5494;51.796;10.952;2023-11-21T03:25:13;9.00;99.90
10883;DHT22;5494;51.796;10.952;2023-11-21T03:27:42;9.00;99.90
10883;DHT22;5494;51.796;10.952;2023-11-21T03:30:12;9.10;99.90
10883;DHT22;5494;51.796;10.952;2023-11-21T03:32:41;9.10;99.90
10883;DHT22;5494;51.796;10.952;2023-11-21T03:35:09;8.90;99.90
10883;DHT22;5494;51.796;10.952;2023-11-21T03:37:37;8.90;99.90
10883;DHT22;5494;51.796;10.952;2023-11-21T03:40:09;8.90;99.90
10883;DHT22;5494;51.796;10.952;2023-11-21T03:42:39;8.90;99.90
10883;DHT22;5494;51.796;10.952;2023-11-21T03:45:08;8.90;99.90
10883;DHT22;5494;51.796;10.952;2023-11-21T03:47:38;8.80;99.90
10883;DHT22;5494;51.796;10.952;2023-11-21T03:50:07;8.80;99.90
10883;DHT22;5494;51.796;10.952;2023-11-21T03:52:37;8.90;99.90
10883;DHT22;5494;51.796;10.952;2023-11-21T03:55:05;9.00;99.90
10883;DHT22;5494;51.796;10.952;2023-11-21T03:57:34;8.90;99.90
10883;DHT22;5494;51.796;10.952;2023-11-21T04:00:04;9.00;99.90
10883;DHT22;5494;51.796;10.952;2023-11-21T04:02:39;8.90;99.90
10883;DHT22;5494;51.796;10.952;2023-11-21T04:05:07;9.00;99.90
10883;DHT22;5494;51.796;10.952;2023-11-21T04:07:36;9.00;99.90
10883;DHT22;5494;51.796;10.952;2023-11-21T04:10:06;8.90;99.90
10883;DHT22;5494;51.796;10.952;2023-11-21T04:12:36;8.90;99.90
10883;DHT22;5494;51.796;10.952;2023-11-21T04:15:04;9.00;99.90
10883;DHT22;5494;51.796;10.952;2023-11-21T04:17:35;9.00;99.90
10883;DHT22;5494;51.796;10.952;2023-11-21T04:20:06;9.00;99.90
10883;DHT22;5494;51.796;10.952;2023-11-21T04:22:39;9.10;99.90
10883;DHT22;5494;51.796;10.952;2023-11-21T04:25:09;9.00;99.90
10883;DHT22;5494;51.796;10.952;2023-11-21T04:27:39;9.10;99.90
10883;DHT22;5494;51.796;10.952;2023-11-21T04:30:13;9.10;99.90
10883;DHT22;5494;51.796;10.952;2023-11-21T04:32:42;9.10;99.90
10883;DHT22;5494;51.796;10.952;2023-11-21T04:35:12;9.10;99.90
10883;DHT22;5494;51.796;10.952;2023-11-21T04:37:41;9.10;99.90
10883;DHT22;5494;51.796;10.952;2023-11-21T04:40:10;9.10;99.90
10883;DHT22;5494;51.796;10.952;2023-11-21T04:42:39;9.20;99.90
10883;DHT22;5494;51.796;10.952;2023-11-21T04:45:08;9.20;99.90
10883;DHT22;5494;51.796;10.952;2023-11-21T04:47:39;9.10;99.90
10883;DHT22;5494;51.796;10.952;2023-11-21T04:50:08;9.00;99.90
10883;DHT22;5494;51.796;10.952;2023-11-21T04:52:38;9.00;99.90
10883;DHT22;5494;51.796;10.952;2023-11-21T04:55:07;8.90;99.90
10883;DHT22;5494;51.796;10.952;2023-11-21T04:57:37;8.90;99.90
10883;DHT22;5494;51.796;10.952;2023-11-21T05:00:06;8.90;99.90
10883;DHT22;5494;51.796;10.952;2023-11-21T05:02:35;8.90;99.90
10883;DHT22;5494;51.796;10.952;2023-11-21T05:05:06;8.90;99.90
10883;DHT22;5494;51.796;10.952;2023-11-21T05:07:38;8.90;99.90
10883;DHT22;5494;51.796;10.952;2023-11-21T05:10:08;8.90;99.90
10883;DHT22;5494;51.796;10.952;2023-11-21T05:12:40;8.90;99.90
10883;DHT22;5494;51.796;10.952;2023-11-21T05:15:09;8.80;99.90
10883;DHT22;5494;51.796;10.952;2023-11-21T05:17:40;8.80;99.90
10883;DHT22;5494;51.796;10.952;2023-11-21T05:20:13;8.90;99.90
10883;DHT22;5494;51.796;10.952;2023-11-21T05:22:46;8.90;99.90
10883;DHT22;5494;51.796;10.952;2023-11-21T05:25:15;8.80;99.90
10883;DHT22;5494;51.796;10.952;2023-11-21T05:27:45;8.80;99.90
10883;DHT22;5494;51.796;10.952;2023-11-21T05:30:14;8.80;99.90
10883;DHT22;5494;51.796;10.952;2023-11-21T05:32:42;8.80;99.90
10883;DHT22;5494;51.796;10.952;2023-11-21T05:35:11;8.80;99.90
10883;DHT22;5494;51.796;10.952;2023-11-21T05:37:42;8.80;99.90
10883;DHT22;5494;51.796;10.952;2023-11-21T05:40:13;8.80;99.90
10883;DHT22;5494;51.796;10.952;2023-11-21T05:42:41;8.80;99.90
10883;DHT22;5494;51.796;10.952;2023-11-21T05:45:10;8.80;99.90
10883;DHT22;5494;51.796;10.952;2023-11-21T05:47:40;8.80;99.90
10883;DHT22;5494;51.796;10.952;2023-11-21T05:50:10;8.70;99.90
10883;DHT22;5494;51.796;10.952;2023-11-21T05:52:42;8.70;99.90
10883;DHT22;5494;51.796;10.952;2023-11-21T05:55:13;8.60;99.90
10883;DHT22;5494;51.796;10.952;2023-11-21T05:57:43;8.60;99.90
10883;DHT22;5494;51.796;10.952;2023-11-21T06:00:13;8.60;99.90
10883;DHT22;5494;51.796;10.952;2023-11-21T06:02:47;8.60;99.90
10883;DHT22;5494;51.796;10.952;2023-11-21T06:05:18;8.60;99.90
10883;DHT22;5494;51.796;10.952;2023-11-21T06:07:47;8.60;99.90
10883;DHT22;5494;51.796;10.952;2023-11-21T06:10:16;8.70;99.90
10883;DHT22;5494;51.796;10.952;2023-11-21T06:12:46;8.70;99.90
10883;DHT22;5494;51.796;10.952;2023-11-21T06:15:18;8.60;99.90
10883;DHT22;5494;51.796;10.952;2023-11-21T06:17:48;8.50;99.90
10883;DHT22;5494;51.796;10.952;2023-11-21T06:20:20;8.50;99.90
10883;DHT22;5494;51.796;10.952;2023-11-21T06:22:50;8.50;99.90
10883;DHT22;5494;51.796;10.952;2023-11-21T06:25:20;8.40;99.90
10883;DHT22;5494;51.796;10.952;2023-11-21T06:27:49;8.40;99.90
10883;DHT22;5494;51.796;10.952;2023-11-21T06:30:19;8.50;99.90
10883;DHT22;5494;51.796;10.952;2023-11-21T06:32:48;8.60;99.90
10883;DHT22;5494;51.796;10.952;2023-11-21T06:35:18;8.60;99.90
10883;DHT22;5494;51.796;10.952;2023-11-21T06:37:46;8.50;99.90
10883;DHT22;5494;51.796;10.952;2023-11-21T06:40:17;8.50;99.90
10883;DHT22;5494;51.796;10.952;2023-11-21T06:42:49;8.50;99.90
10883;DHT22;5494;51.796;10.952;2023-11-21T06:45:18;8.40;99.90
10883;DHT22;5494;51.796;10.952;2023-11-21T06:47:47;8.40;99.90
10883;DHT22;5494;51.796;10.952;2023-11-21T06:50:15;8.50;99.90
10883;DHT22;5494;51.796;10.952;2023-11-21T06:52:43;8.40;99.90
10883;DHT22;5494;51.796;10.952;2023-11-21T06:55:12;8.50;99.90
10883;DHT22;5494;51.796;10.952;2023-11-21T06:57:40;8.50;99.90
10883;DHT22;5494;51.796;10.952;2023-11-21T07:00:10;8.50;99.90
10883;DHT22;5494;51.796;10.952;2023-11-21T07:02:39;8.50;99.90
10883;DHT22;5494;51.796;10.952;2023-11-21T07:05:08;8.50;99.90
10883;DHT22;5494;51.796;10.952;2023-11-21T07:07:36;8.50;99.90
10883;DHT22;5494;51.796;10.952;2023-11-21T07:10:05;8.50;99.90
10883;DHT22;5494;51.796;10.952;2023-11-21T07:12:34;8.60;99.90
10883;DHT22;5494;51.796;10.952;2023-11-21T07:15:05;8.60;99.90
10883;DHT22;5494;51.796;10.952;2023-11-21T07:17:37;8.60;99.90
10883;DHT22;5494;51.796;10.952;2023-11-21T07:20:08;8.70;99.90
10883;DHT22;5494;51.796;10.952;2023-11-21T07:22:37;8.70;99.90
10883;DHT22;5494;51.796;10.952;2023-11-21T07:25:06;8.80;99.90
10883;DHT22;5494;51.796;10.952;2023-11-21T07:27:36;8.80;99.90
10883;DHT22;5494;51.796;10.952;2023-11-21T07:30:05;8.80;99.90
10883;DHT22;5494;51.796;10.952;2023-11-21T07:32:35;8.70;99.90
10883;DHT22;5494;51.796;10.952;2023-11-21T07:35:09;8.70;99.90
10883;DHT22;5494;51.796;10.952;2023-11-21T07:37:37;8.80;99.90
10883;DHT22;5494;51.796;10.952;2023-11-21T07:40:06;8.80;99.90
10883;DHT22;5494;51.796;10.952;2023-11-21T07:42:38;8.80;99.90
10883;DHT22;5494;51.796;10.952;2023-11-21T07:45:07;8.90;99.90
10883;DHT22;5494;51.796;10.952;2023-11-21T07:47:36;9.00;99.90
10883;DHT22;5494;51.796;10.952;2023-11-21T07:50:08;9.00;99.90
10883;DHT22;5494;51.796;10.952;2023-11-21T07:52:37;9.00;99.90
10883;DHT22;5494;51.796;10.952;2023-11-21T07:55:06;9.10;99.90
10883;DHT22;5494;51.796;10.952;2023-11-21T07:57:35;9.10;99.90
10883;DHT22;5494;51.796;10.952;2023-11-21T08:00:04;9.10;99.90
10883;DHT22;5494;51.796;10.952;2023-11-21T08:02:39;9.10;99.90
10883;DHT22;5494;51.796;10.952;2023-11-21T08:05:10;9.10;99.90
10883;DHT22;5494;51.796;10.952;2023-11-21T08:07:50;9.10;99.90
10883;DHT22;5494;51.796;10.952;2023-11-21T08:10:19;9.00;99.90
10883;DHT22;5494;51.796;10.952;2023-11-21T08:12:48;9.00;99.90
10883;DHT22;5494;51.796;10.952;2023-11-21T08:15:18;9.00;99.90
10883;DHT22;5494;51.796;10.952;2023-11-21T08:17:46;9.00;99.90
10883;DHT22;5494;51.796;10.952;2023-11-21T08:20:16;9.00;99.90
10883;DHT22;5494;51.796;10.952;2023-11-21T08:22:45;8.90;99.90
10883;DHT22;5494;51.796;10.952;2023-11-21T08:25:15;8.80;99.90
10883;DHT22;5494;51.796;10.952;2023-11-21T08:27:46;8.80;99.90
10883;DHT22;5494;51.796;10.952;2023-11-21T08:30:15;8.70;99.90
10883;DHT22;5494;51.796;10.952;2023-11-21T08:32:45;8.20;99.90
10883;DHT22;5494;51.796;10.952;2023-11-21T08:35:15;7.60;99.90
10883;DHT22;5494;51.796;10.952;2023-11-21T08:37:44;7.20;99.90
10883;DHT22;5494;51.796;10.952;2023-11-21T08:40:13;7.00;99.90
10883;DHT22;5494;51.796;10.952;2023-11-21T08:42:43;6.80;99.90
10883;DHT22;5494;51.796;10.952;2023-11-21T08:45:12;6.80;99.90
10883;DHT22;5494;51.796;10.952;2023-11-21T08:47:40;6.70;99.90
10883;DHT22;5494;51.796;10.952;2023-11-21T08:50:11;6.60;99.90
10883;DHT22;5494;51.796;10.952;2023-11-21T08:52:41;6.70;99.90
10883;DHT22;5494;51.796;10.952;2023-11-21T08:55:10;6.70;99.90
10883;DHT22;5494;51.796;10.952;2023-11-21T08:57:40;6.60;99.90
10883;DHT22;5494;51.796;10.952;2023-11-21T09:00:10;6.60;99.90
10883;DHT22;5494;51.796;10.952;2023-11-21T09:02:39;6.60;99.90
10883;DHT22;5494;51.796;10.952;2023-11-21T09:05:10;6.60;99.90
10883;DHT22;5494;51.796;10.952;2023-11-21T09:07:41;6.60;99.90
10883;DHT22;5494;51.796;10.952;2023-11-21T09:10:16;6.60;99.90
10883;DHT22;5494;51.796;10.952;2023-11-21T09:12:44;6.60;99.90
10883;DHT22;5494;51.796;10.952;2023-11-21T09:15:12;6.70;99.90
10883;DHT22;5494;51.796;10.952;2023-11-21T09:17:41;6.70;99.90
10883;DHT22;5494;51.796;10.952;2023-11-21T09:20:11;6.70;99.90
10883;DHT22;5494;51.796;10.952;2023-11-21T09:22:43;6.80;99.90
10883;DHT22;5494;51.796;10.952;2023-11-21T09:25:13;6.80;99.90
10883;DHT22;5494;51.796;10.952;2023-11-21T09:27:41;6.70;99.90
10883;DHT22;5494;51.796;10.952;2023-11-21T09:30:10;6.60;99.90
10883;DHT22;5494;51.796;10.952;2023-11-21T09:32:41;6.50;99.90
10883;DHT22;5494;51.796;10.952;2023-11-21T09:35:12;6.40;99.90
10883;DHT22;5494;51.796;10.952;2023-11-21T09:37:44;6.50;99.90
10883;DHT22;5494;51.796;10.952;2023-11-21T09:40:21;6.50;99.90
10883;DHT22;5494;51.796;10.952;2023-11-21T09:42:54;6.40;99.90
10883;DHT22;5494;51.796;10.952;2023-11-21T09:45:26;6.20;99.90
10883;DHT22;5494;51.796;10.952;2023-11-21T09:47:56;6.10;99.90
10883;DHT22;5494;51.796;10.952;2023-11-21T09:50:25;5.90;99.90
10883;DHT22;5494;51.796;10.952;2023-11-21T09:52:59;5.90;99.90
10883;DHT22;5494;51.796;10.952;2023-11-21T09:55:37;5.90;99.90
10883;DHT22;5494;51.796;10.952;2023-11-21T09:58:11;5.80;99.90
10883;DHT22;5494;51.796;10.952;2023-11-21T10:00:41;5.80;99.90
10883;DHT22;5494;51.796;10.952;2023-11-21T10:03:11;5.80;99.90
10883;DHT22;5494;51.796;10.952;2023-11-21T10:05:41;5.80;99.90
10883;DHT22;5494;51.796;10.952;2023-11-21T10:08:12;5.90;99.90
10883;DHT22;5494;51.796;10.952;2023-11-21T10:10:43;5.90;99.90
10883;DHT22;5494;51.796;10.952;2023-11-21T10:13:13;5.90;99.90
10883;DHT22;5494;51.796;10.952;2023-11-21T10:15:49;6.00;99.90
10883;DHT22;5494;51.796;10.952;2023-11-21T10:18:19;6.10;99.90
10883;DHT22;5494;51.796;10.952;2023-11-21T10:20:49;6.00;99.90
10883;DHT22;5494;51.796;10.952;2023-11-21T10:23:22;6.00;99.90
10883;DHT22;5494;51.796;10.952;2023-11-21T10:25:51;6.10;99.90
10883;DHT22;5494;51.796;10.952;2023-11-21T10:28:20;6.20;99.90
10883;DHT22;5494;51.796;10.952;2023-11-21T10:30:49;6.30;99.90
10883;DHT22;5494;51.796;10.952;2023-11-21T10:33:17;6.50;99.90
10883;DHT22;5494;51.796;10.952;2023-11-21T10:35:45;6.40;99.90
10883;DHT22;5494;51.796;10.952;2023-11-21T10:38:18;6.20;99.90
10883;DHT22;5494;51.796;10.952;2023-11-21T10:40:49;6.10;99.90
10883;DHT22;5494;51.796;10.952;2023-11-21T10:43:18;6.00;99.90
10883;DHT22;5494;51.796;10.952;2023-11-21T10:45:47;6.00;99.90
10883;DHT22;5494;51.796;10.952;2023-11-21T10:48:15;5.90;99.90
10883;DHT22;5494;51.796;10.952;2023-11-21T10:50:45;5.80;99.90
10883;DHT22;5494;51.796;10.952;2023-11-21T10:53:15;5.90;99.90
10883;DHT22;5494;51.796;10.952;2023-11-21T10:55:43;6.00;99.90
10883;DHT22;5494;51.796;10.952;2023-11-21T10:58:14;6.00;99.90
10883;DHT22;5494;51.796;10.952;2023-11-21T11:00:44;6.00;99.90
10883;DHT22;5494;51.796;10.952;2023-11-21T11:03:13;6.00;99.90
10883;DHT22;5494;51.796;10.952;2023-11-21T11:05:44;5.90;99.90
10883;DHT22;5494;51.796;10.952;2023-11-21T11:08:20;5.90;99.90
10883;DHT22;5494;51.796;10.952;2023-11-21T11:10:54;5.90;99.90
10883;DHT22;5494;51.796;10.952;2023-11-21T11:13:26;6.00;99.90
10883;DHT22;5494;51.796;10.952;2023-11-21T11:15:58;6.00;99.90
10883;DHT22;5494;51.796;10.952;2023-11-21T11:18:28;6.00;99.90
10883;DHT22;5494;51.796;10.952;2023-11-21T11:21:05;5.90;99.90
10883;DHT22;5494;51.796;10.952;2023-11-21T11:23:49;5.80;99.90
10883;DHT22;5494;51.796;10.952;2023-11-21T11:26:42;5.80;99.90
10883;DHT22;5494;51.796;10.952;2023-11-21T11:29:24;5.80;99.90
10883;DHT22;5494;51.796;10.952;2023-11-21T11:32:09;5.90;99.90
10883;DHT22;5494;51.796;10.952;2023-11-21T11:34:47;5.90;99.90
10883;DHT22;5494;51.796;10.952;2023-11-21T11:37:22;6.00;99.90
10883;DHT22;5494;51.796;10.952;2023-11-21T11:39:51;6.10;99.90
10883;DHT22;5494;51.796;10.952;2023-11-21T11:42:22;6.10;99.90
10883;DHT22;5494;51.796;10.952;2023-11-21T11:44:52;6.20;99.90
10883;DHT22;5494;51.796;10.952;2023-11-21T11:47:24;6.30;99.90
10883;DHT22;5494;51.796;10.952;2023-11-21T11:50:06;6.30;99.90
10883;DHT22;5494;51.796;10.952;2023-11-21T11:52:41;6.30;99.90
10883;DHT22;5494;51.796;10.952;2023-11-21T11:55:11;6.20;99.90
10883;DHT22;5494;51.796;10.952;2023-11-21T11:57:43;6.20;99.90
10883;DHT22;5494;51.796;10.952;2023-11-21T12:00:16;6.10;99.90
10883;DHT22;5494;51.796;10.952;2023-11-21T12:02:52;5.90;99.90
10883;DHT22;5494;51.796;10.952;2023-11-21T12:05:24;5.90;99.90
10883;DHT22;5494;51.796;10.952;2023-11-21T12:07:55;5.80;99.90
10883;DHT22;5494;51.796;10.952;2023-11-21T12:10:25;5.90;99.90
10883;DHT22;5494;51.796;10.952;2023-11-21T12:12:56;6.20;99.90
10883;DHT22;5494;51.796;10.952;2023-11-21T12:15:27;6.40;99.90
10883;DHT22;5494;51.796;10.952;2023-11-21T12:17:57;6.50;99.90
10883;DHT22;5494;51.796;10.952;2023-11-21T12:20:27;6.50;99.90
10883;DHT22;5494;51.796;10.952;2023-11-21T12:22:57;6.60;99.90
10883;DHT22;5494;51.796;10.952;2023-11-21T12:25:28;6.70;99.90
10883;DHT22;5494;51.796;10.952;2023-11-21T12:27:59;6.60;99.90
10883;DHT22;5494;51.796;10.952;2023-11-21T12:30:33;6.40;99.90
10883;DHT22;5494;51.796;10.952;2023-11-21T12:33:03;6.20;99.90
10883;DHT22;5494;51.796;10.952;2023-11-21T12:35:34;6.20;99.90
10883;DHT22;5494;51.796;10.952;2023-11-21T12:38:04;6.20;99.90
10883;DHT22;5494;51.796;10.952;2023-11-21T12:40:33;6.30;99.90
10883;DHT22;5494;51.796;10.952;2023-11-21T12:43:01;6.30;99.90
10883;DHT22;5494;51.796;10.952;2023-11-21T12:45:32;6.30;99.90
10883;DHT22;5494;51.796;10.952;2023-11-21T12:48:02;6.40;99.90
10883;DHT22;5494;51.796;10.952;2023-11-21T12:50:35;6.40;99.90
10883;DHT22;5494;51.796;10.952;2023-11-21T12:53:06;6.50;99.90
10883;DHT22;5494;51.796;10.952;2023-11-21T12:55:37;6.60;99.90
10883;DHT22;5494;51.796;10.952;2023-11-21T12:58:07;6.70;99.90
10883;DHT22;5494;51.796;10.952;2023-11-21T13:00:42;6.70;99.90
10883;DHT22;5494;51.796;10.952;2023-11-21T13:03:13;6.70;99.90
10883;DHT22;5494;51.796;10.952;2023-11-21T13:05:47;6.70;99.90
10883;DHT22;5494;51.796;10.952;2023-11-21T13:08:18;6.60;99.90
10883;DHT22;5494;51.796;10.952;2023-11-21T13:10:51;6.50;99.90
10883;DHT22;5494;51.796;10.952;2023-11-21T13:13:22;6.50;99.90
10883;DHT22;5494;51.796;10.952;2023-11-21T13:16:00;6.50;99.90
10883;DHT22;5494;51.796;10.952;2023-11-21T13:18:38;6.40;99.90
10883;DHT22;5494;51.796;10.952;2023-11-21T13:21:09;6.30;99.90
10883;DHT22;5494;51.796;10.952;2023-11-21T13:23:42;6.20;99.90
10883;DHT22;5494;51.796;10.952;2023-11-21T13:26:15;6.10;99.90
10883;DHT22;5494;51.796;10.952;2023-11-21T13:28:44;6.10;99.90
10883;DHT22;5494;51.796;10.952;2023-11-21T13:31:15;6.10;99.90
10883;DHT22;5494;51.796;10.952;2023-11-21T13:33:53;6.10;99.90
10883;DHT22;5494;51.796;10.952;2023-11-21T13:36:25;6.00;99.90
10883;DHT22;5494;51.796;10.952;2023-11-21T13:38:57;5.80;99.90
10883;DHT22;5494;51.796;10.952;2023-11-21T13:41:31;5.80;99.90
10883;DHT22;5494;51.796;10.952;2023-11-21T13:43:59;5.70;99.90
10883;DHT22;5494;51.796;10.952;2023-11-21T13:46:42;5.60;99.90
10883;DHT22;5494;51.796;10.952;2023-11-21T13:49:12;5.50;99.90
10883;DHT22;5494;51.796;10.952;2023-11-21T13:51:43;5.50;99.90
10883;DHT22;5494;51.796;10.952;2023-11-21T13:54:15;5.50;99.90
10883;DHT22;5494;51.796;10.952;2023-11-21T13:56:43;5.50;99.90
10883;DHT22;5494;51.796;10.952;2023-11-21T13:59:15;5.50;99.90
10883;DHT22;5494;51.796;10.952;2023-11-21T14:01:50;5.40;99.90
10883;DHT22;5494;51.796;10.952;2023-11-21T14:04:25;5.50;99.90
10883;DHT22;5494;51.796;10.952;2023-11-21T14:07:13;5.50;99.90
10883;DHT22;5494;51.796;10.952;2023-11-21T14:09:59;5.60;99.90
10883;DHT22;5494;51.796;10.952;2023-11-21T14:12:28;5.60;99.90
10883;DHT22;5494;51.796;10.952;2023-11-21T14:15:00;5.70;99.90
10883;DHT22;5494;51.796;10.952;2023-11-21T14:17:31;5.70;99.90
10883;DHT22;5494;51.796;10.952;2023-11-21T14:20:01;5.70;99.90
10883;DHT22;5494;51.796;10.952;2023-11-21T14:22:32;5.70;99.90
10883;DHT22;5494;51.796;10.952;2023-11-21T14:25:01;5.70;99.90
10883;DHT22;5494;51.796;10.952;2023-11-21T14:27:30;5.70;99.90
10883;DHT22;5494;51.796;10.952;2023-11-21T14:30:02;5.60;99.90
10883;DHT22;5494;51.796;10.952;2023-11-21T14:32:33;5.60;99.90
10883;DHT22;5494;51.796;10.952;2023-11-21T14:35:01;5.60;99.90
10883;DHT22;5494;51.796;10.952;2023-11-21T14:37:30;5.50;99.90
10883;DHT22;5494;51.796;10.952;2023-11-21T14:39:58;5.80;99.90
10883;DHT22;5494;51.796;10.952;2023-11-21T14:42:26;5.30;99.90
10883;DHT22;5494;51.796;10.952;2023-11-21T14:44:56;5.30;99.90
10883;DHT22;5494;51.796;10.952;2023-11-21T14:47:29;5.20;99.90
10883;DHT22;5494;51.796;10.952;2023-11-21T14:50:00;5.20;99.90
10883;DHT22;5494;51.796;10.952;2023-11-21T14:52:48;5.10;99.90
10883;DHT22;5494;51.796;10.952;2023-11-21T14:55:22;5.10;99.90
10883;DHT22;5494;51.796;10.952;2023-11-21T14:57:58;5.10;99.90
10883;DHT22;5494;51.796;10.952;2023-11-21T15:00:30;5.00;99.90
10883;DHT22;5494;51.796;10.952;2023-11-21T15:03:07;5.00;99.90
10883;DHT22;5494;51.796;10.952;2023-11-21T15:05:38;5.00;99.90
10883;DHT22;5494;51.796;10.952;2023-11-21T15:08:07;5.10;99.90
10883;DHT22;5494;51.796;10.952;2023-11-21T15:10:47;5.10;99.90
10883;DHT22;5494;51.796;10.952;2023-11-21T15:13:20;5.10;99.90
10883;DHT22;5494;51.796;10.952;2023-11-21T15:15:51;5.10;99.90
10883;DHT22;5494;51.796;10.952;2023-11-21T15:18:21;5.10;99.90
10883;DHT22;5494;51.796;10.952;2023-11-21T15:20:50;5.00;99.90
10883;DHT22;5494;51.796;10.952;2023-11-21T15:23:18;5.10;99.90
10883;DHT22;5494;51.796;10.952;2023-11-21T15:25:47;5.10;99.90
10883;DHT22;5494;51.796;10.952;2023-11-21T15:28:15;5.10;99.90
10883;DHT22;5494;51.796;10.952;2023-11-21T15:30:44;5.10;99.90
10883;DHT22;5494;51.796;10.952;2023-11-21T15:33:15;5.00;99.90
10883;DHT22;5494;51.796;10.952;2023-11-21T15:35:43;5.10;99.90
10883;DHT22;5494;51.796;10.952;2023-11-21T15:38:12;5.10;99.90
10883;DHT22;5494;51.796;10.952;2023-11-21T15:40:41;5.00;99.90
10883;DHT22;5494;51.796;10.952;2023-11-21T15:43:10;5.00;99.90
10883;DHT22;5494;51.796;10.952;2023-11-21T15:45:39;5.10;99.90
10883;DHT22;5494;51.796;10.952;2023-11-21T15:48:07;5.10;99.90
10883;DHT22;5494;51.796;10.952;2023-11-21T15:50:36;5.20;99.90
10883;DHT22;5494;51.796;10.952;2023-11-21T15:53:04;5.30;99.90
10883;DHT22;5494;51.796;10.952;2023-11-21T15:55:35;5.20;99.90
10883;DHT22;5494;51.796;10.952;2023-11-21T15:58:09;5.20;99.90
10883;DHT22;5494;51.796;10.952;2023-11-21T16:00:37;5.20;99.90
10883;DHT22;5494;51.796;10.952;2023-11-21T16:03:05;5.10;99.90
10883;DHT22;5494;51.796;10.952;2023-11-21T16:05:33;5.00;99.90